sensor_id;sensor_type;location;lat;lon;timestamp;pressure;altitude;pressure_sealevel;temperature;humidity
41044;BME280;51680;49.806;18.774;2022-08-05T00:00:21;97425.75;;;22.45;68.71
41044;BME280;51680;49.806;18.774;2022-08-05T00:03:23;97422.06;;;22.54;68.29
41044;BME280;51680;49.806;18.774;2022-08-05T00:06:44;97427.53;;;22.60;68.07
41044;BME280;51680;49.806;18.774;2022-08-05T00:09:45;97422.38;;;22.59;68.64
41044;BME280;51680;49.806;18.774;2022-08-05T00:13:07;97429.72;;;22.57;68.86
41044;BME280;51680;49.806;18.774;2022-08-05T00:16:10;97438.72;;;22.56;68.88
41044;BME280;51680;49.806;18.774;2022-08-05T00:19:12;97432.38;;;22.57;68.46
41044;BME280;51680;49.806;18.774;2022-08-05T00:22:25;97430.56;;;22.57;68.27
41044;BME280;51680;49.806;18.774;2022-08-05T00:25:27;97426.22;;;22.64;68.06
41044;BME280;51680;49.806;18.774;2022-08-05T00:28:31;97429.81;;;22.71;67.64
41044;BME280;51680;49.806;18.774;2022-08-05T00:31:51;97424.97;;;22.83;67.17
41044;BME280;51680;49.806;18.774;2022-08-05T00:34:53;97422.28;;;22.91;67.05
41044;BME280;51680;49.806;18.774;2022-08-05T00:37:55;97432.06;;;22.98;66.83
41044;BME280;51680;49.806;18.774;2022-08-05T00:40:57;97421.22;;;23.00;66.97
41044;BME280;51680;49.806;18.774;2022-08-05T00:44:01;97421.56;;;22.97;67.13
41044;BME280;51680;49.806;18.774;2022-08-05T00:47:03;97422.28;;;22.91;67.32
41044;BME280;51680;49.806;18.774;2022-08-05T00:50:06;97423.09;;;22.91;67.27
41044;BME280;51680;49.806;18.774;2022-08-05T00:53:08;97422.59;;;22.88;67.38
41044;BME280;51680;49.806;18.774;2022-08-05T00:56:10;97424.78;;;22.84;67.29
41044;BME280;51680;49.806;18.774;2022-08-05T00:59:13;97427.28;;;22.86;67.08
41044;BME280;51680;49.806;18.774;2022-08-05T01:02:15;97420.47;;;22.83;66.71
41044;BME280;51680;49.806;18.774;2022-08-05T01:05:17;97418.66;;;22.84;66.35
41044;BME280;51680;49.806;18.774;2022-08-05T01:08:18;97417.66;;;22.85;66.13
41044;BME280;51680;49.806;18.774;2022-08-05T01:11:22;97414.31;;;22.83;65.97
41044;BME280;51680;49.806;18.774;2022-08-05T01:14:30;97411.53;;;22.76;65.95
41044;BME280;51680;49.806;18.774;2022-08-05T01:17:37;97408.53;;;22.71;66.18
41044;BME280;51680;49.806;18.774;2022-08-05T01:20:47;97408.75;;;22.62;66.60
41044;BME280;51680;49.806;18.774;2022-08-05T01:24:01;97401.94;;;22.59;66.52
41044;BME280;51680;49.806;18.774;2022-08-05T01:27:10;97407.47;;;22.50;66.76
41044;BME280;51680;49.806;18.774;2022-08-05T01:30:16;97399.16;;;22.45;66.66
41044;BME280;51680;49.806;18.774;2022-08-05T01:33:20;97399.47;;;22.42;66.80
41044;BME280;51680;49.806;18.774;2022-08-05T01:36:28;97399.47;;;22.42;66.73
41044;BME280;51680;49.806;18.774;2022-08-05T01:39:33;97395.31;;;22.39;66.77
41044;BME280;51680;49.806;18.774;2022-08-05T01:42:38;97398.16;;;22.38;66.91
41044;BME280;51680;49.806;18.774;2022-08-05T01:45:42;97394.31;;;22.32;67.08
41044;BME280;51680;49.806;18.774;2022-08-05T01:48:45;97388.53;;;22.29;66.91
41044;BME280;51680;49.806;18.774;2022-08-05T01:51:49;97398.53;;;22.27;66.77
41044;BME280;51680;49.806;18.774;2022-08-05T01:54:55;97393.53;;;22.32;66.66
41044;BME280;51680;49.806;18.774;2022-08-05T01:57:57;97382.88;;;22.32;66.30
41044;BME280;51680;49.806;18.774;2022-08-05T02:01:01;97389.84;;;22.33;66.29
41044;BME280;51680;49.806;18.774;2022-08-05T02:04:05;97390.69;;;22.33;66.08
41044;BME280;51680;49.806;18.774;2022-08-05T02:07:07;97386.34;;;22.32;65.97
41044;BME280;51680;49.806;18.774;2022-08-05T02:10:10;97388.84;;;22.34;65.81
41044;BME280;51680;49.806;18.774;2022-08-05T02:13:14;97377.72;;;22.30;65.83
41044;BME280;51680;49.806;18.774;2022-08-05T02:16:21;97381.22;;;22.31;65.75
41044;BME280;51680;49.806;18.774;2022-08-05T02:19:29;97383.06;;;22.22;65.77
41044;BME280;51680;49.806;18.774;2022-08-05T02:22:38;97371.75;;;22.20;65.80
41044;BME280;51680;49.806;18.774;2022-08-05T02:25:43;97368.25;;;22.20;65.64
41044;BME280;51680;49.806;18.774;2022-08-05T02:28:47;97368.25;;;22.20;65.54
41044;BME280;51680;49.806;18.774;2022-08-05T02:31:52;97372.25;;;22.24;65.36
41044;BME280;51680;49.806;18.774;2022-08-05T02:34:56;97362.09;;;22.27;65.17
41044;BME280;51680;49.806;18.774;2022-08-05T02:38:00;97369.91;;;22.29;65.10
41044;BME280;51680;49.806;18.774;2022-08-05T02:41:03;97366.44;;;22.28;64.79
41044;BME280;51680;49.806;18.774;2022-08-05T02:44:07;97365.28;;;22.23;64.77
41044;BME280;51680;49.806;18.774;2022-08-05T02:47:11;97365.66;;;22.12;65.27
41044;BME280;51680;49.806;18.774;2022-08-05T02:50:15;97359.50;;;22.03;65.20
41044;BME280;51680;49.806;18.774;2022-08-05T02:53:19;97359.34;;;21.97;65.40
41044;BME280;51680;49.806;18.774;2022-08-05T02:56:21;97357.34;;;21.91;65.54
41044;BME280;51680;49.806;18.774;2022-08-05T02:59:24;97355.72;;;21.90;65.36
41044;BME280;51680;49.806;18.774;2022-08-05T03:02:33;97361.34;;;21.87;65.81
41044;BME280;51680;49.806;18.774;2022-08-05T03:05:37;97358.38;;;21.82;65.80
41044;BME280;51680;49.806;18.774;2022-08-05T03:08:40;97360.84;;;21.75;65.86
41044;BME280;51680;49.806;18.774;2022-08-05T03:11:42;97370.00;;;21.73;65.91
41044;BME280;51680;49.806;18.774;2022-08-05T03:14:44;97368.69;;;21.69;66.07
41044;BME280;51680;49.806;18.774;2022-08-05T03:17:47;97366.97;;;21.68;66.02
41044;BME280;51680;49.806;18.774;2022-08-05T03:20:49;97360.53;;;21.62;66.15
41044;BME280;51680;49.806;18.774;2022-08-05T03:23:51;97362.03;;;21.65;66.12
41044;BME280;51680;49.806;18.774;2022-08-05T03:26:53;97365.69;;;21.64;66.08
41044;BME280;51680;49.806;18.774;2022-08-05T03:29:54;97360.19;;;21.65;65.94
41044;BME280;51680;49.806;18.774;2022-08-05T03:32:59;97363.50;;;21.67;65.90
41044;BME280;51680;49.806;18.774;2022-08-05T03:36:01;97361.34;;;21.63;66.12
41044;BME280;51680;49.806;18.774;2022-08-05T03:39:05;97368.34;;;21.64;66.11
41044;BME280;51680;49.806;18.774;2022-08-05T03:42:08;97366.34;;;21.66;65.96
41044;BME280;51680;49.806;18.774;2022-08-05T03:45:09;97370.34;;;21.70;65.93
41044;BME280;51680;49.806;18.774;2022-08-05T03:48:12;97368.03;;;21.75;65.53
41044;BME280;51680;49.806;18.774;2022-08-05T03:51:18;97366.19;;;21.83;65.53
41044;BME280;51680;49.806;18.774;2022-08-05T03:54:29;97368.00;;;21.99;65.17
41044;BME280;51680;49.806;18.774;2022-08-05T03:57:33;97361.50;;;22.09;64.73
41044;BME280;51680;49.806;18.774;2022-08-05T04:00:38;97362.63;;;22.23;64.33
41044;BME280;51680;49.806;18.774;2022-08-05T04:03:45;97361.94;;;22.29;64.04
41044;BME280;51680;49.806;18.774;2022-08-05T04:06:48;97362.91;;;22.36;63.99
41044;BME280;51680;49.806;18.774;2022-08-05T04:09:51;97365.22;;;22.47;63.67
41044;BME280;51680;49.806;18.774;2022-08-05T04:12:53;97363.50;;;22.62;63.32
41044;BME280;51680;49.806;18.774;2022-08-05T04:15:56;97363.25;;;22.79;62.84
41044;BME280;51680;49.806;18.774;2022-08-05T04:18:59;97355.66;;;22.99;62.22
41044;BME280;51680;49.806;18.774;2022-08-05T04:22:01;97348.91;;;23.19;61.85
41044;BME280;51680;49.806;18.774;2022-08-05T04:25:03;97347.06;;;23.42;61.23
41044;BME280;51680;49.806;18.774;2022-08-05T04:28:05;97351.75;;;23.62;60.61
41044;BME280;51680;49.806;18.774;2022-08-05T04:31:07;97346.53;;;23.83;60.18
41044;BME280;51680;49.806;18.774;2022-08-05T04:34:10;97347.88;;;24.02;59.71
41044;BME280;51680;49.806;18.774;2022-08-05T04:37:14;97351.94;;;24.12;59.50
41044;BME280;51680;49.806;18.774;2022-08-05T04:40:15;97350.75;;;24.15;58.64
41044;BME280;51680;49.806;18.774;2022-08-05T04:43:17;97350.56;;;24.31;58.62
41044;BME280;51680;49.806;18.774;2022-08-05T04:46:19;97345.41;;;24.44;57.76
41044;BME280;51680;49.806;18.774;2022-08-05T04:49:22;97343.03;;;24.63;56.66
41044;BME280;51680;49.806;18.774;2022-08-05T04:52:24;97345.16;;;24.89;56.26
41044;BME280;51680;49.806;18.774;2022-08-05T04:55:25;97348.72;;;25.10;55.35
41044;BME280;51680;49.806;18.774;2022-08-05T04:58:27;97345.66;;;25.28;54.93
41044;BME280;51680;49.806;18.774;2022-08-05T05:01:29;97337.38;;;25.44;54.79
41044;BME280;51680;49.806;18.774;2022-08-05T05:04:32;97336.72;;;25.63;53.07
41044;BME280;51680;49.806;18.774;2022-08-05T05:07:34;97334.84;;;25.84;53.38
41044;BME280;51680;49.806;18.774;2022-08-05T05:10:40;97332.34;;;26.04;52.06
41044;BME280;51680;49.806;18.774;2022-08-05T05:13:42;97342.56;;;26.21;52.24
41044;BME280;51680;49.806;18.774;2022-08-05T05:16:44;97330.78;;;26.50;51.38
41044;BME280;51680;49.806;18.774;2022-08-05T05:19:47;97339.34;;;26.66;50.97
41044;BME280;51680;49.806;18.774;2022-08-05T05:22:49;97336.06;;;26.77;51.28
41044;BME280;51680;49.806;18.774;2022-08-05T05:25:50;97344.41;;;27.02;50.77
41044;BME280;51680;49.806;18.774;2022-08-05T05:28:52;97335.44;;;27.22;50.32
41044;BME280;51680;49.806;18.774;2022-08-05T05:31:54;97331.16;;;27.54;49.47
41044;BME280;51680;49.806;18.774;2022-08-05T05:34:57;97329.31;;;27.74;49.04
41044;BME280;51680;49.806;18.774;2022-08-05T05:38:00;97341.72;;;27.88;48.65
41044;BME280;51680;49.806;18.774;2022-08-05T05:41:02;97343.97;;;28.10;48.91
41044;BME280;51680;49.806;18.774;2022-08-05T05:44:04;97352.00;;;28.43;48.66
41044;BME280;51680;49.806;18.774;2022-08-05T05:47:06;97352.34;;;28.66;48.20
41044;BME280;51680;49.806;18.774;2022-08-05T05:50:10;97358.09;;;28.76;46.82
41044;BME280;51680;49.806;18.774;2022-08-05T05:53:12;97353.97;;;28.80;46.83
41044;BME280;51680;49.806;18.774;2022-08-05T05:56:15;97354.78;;;28.87;47.72
41044;BME280;51680;49.806;18.774;2022-08-05T05:59:19;97355.97;;;28.91;46.52
41044;BME280;51680;49.806;18.774;2022-08-05T06:02:21;97353.91;;;28.99;46.71
41044;BME280;51680;49.806;18.774;2022-08-05T06:05:24;97350.66;;;29.28;46.42
41044;BME280;51680;49.806;18.774;2022-08-05T06:08:26;97348.47;;;29.50;45.29
41044;BME280;51680;49.806;18.774;2022-08-05T06:11:28;97343.19;;;29.68;45.67
41044;BME280;51680;49.806;18.774;2022-08-05T06:14:30;97347.06;;;29.72;45.11
41044;BME280;51680;49.806;18.774;2022-08-05T06:17:31;97351.38;;;30.04;46.13
41044;BME280;51680;49.806;18.774;2022-08-05T06:20:34;97348.31;;;30.01;45.71
41044;BME280;51680;49.806;18.774;2022-08-05T06:23:55;97344.06;;;29.87;45.69
41044;BME280;51680;49.806;18.774;2022-08-05T06:26:57;97352.53;;;29.90;45.83
41044;BME280;51680;49.806;18.774;2022-08-05T06:29:58;97354.66;;;30.06;46.03
41044;BME280;51680;49.806;18.774;2022-08-05T06:33:00;97352.47;;;29.97;45.98
41044;BME280;51680;49.806;18.774;2022-08-05T06:36:04;97341.03;;;29.77;44.91
41044;BME280;51680;49.806;18.774;2022-08-05T06:39:06;97347.06;;;29.72;46.66
41044;BME280;51680;49.806;18.774;2022-08-05T06:42:08;97348.44;;;29.81;46.29
41044;BME280;51680;49.806;18.774;2022-08-05T06:45:09;97341.81;;;30.08;46.69
41044;BME280;51680;49.806;18.774;2022-08-05T06:48:11;97342.63;;;30.33;45.66
41044;BME280;51680;49.806;18.774;2022-08-05T06:51:14;97350.81;;;30.63;46.56
41044;BME280;51680;49.806;18.774;2022-08-05T06:54:16;97351.06;;;30.79;45.75
41044;BME280;51680;49.806;18.774;2022-08-05T06:57:18;97344.69;;;30.74;44.40
41044;BME280;51680;49.806;18.774;2022-08-05T07:00:19;97347.63;;;30.72;44.88
41044;BME280;51680;49.806;18.774;2022-08-05T07:03:21;97347.16;;;30.93;43.68
41044;BME280;51680;49.806;18.774;2022-08-05T07:06:24;97349.09;;;31.22;42.29
41044;BME280;51680;49.806;18.774;2022-08-05T07:09:26;97345.56;;;31.51;43.06
41044;BME280;51680;49.806;18.774;2022-08-05T07:12:28;97342.91;;;31.63;42.25
41044;BME280;51680;49.806;18.774;2022-08-05T07:15:46;97349.19;;;31.86;41.41
41044;BME280;51680;49.806;18.774;2022-08-05T07:19:06;97341.41;;;31.67;39.96
41044;BME280;51680;49.806;18.774;2022-08-05T07:22:09;97343.59;;;31.58;38.84
41044;BME280;51680;49.806;18.774;2022-08-05T07:25:11;97348.66;;;31.66;41.31
41044;BME280;51680;49.806;18.774;2022-08-05T07:28:12;97353.44;;;31.94;42.06
41044;BME280;51680;49.806;18.774;2022-08-05T07:31:14;97358.84;;;32.05;40.58
41044;BME280;51680;49.806;18.774;2022-08-05T07:34:16;97356.09;;;32.58;40.16
41044;BME280;51680;49.806;18.774;2022-08-05T07:37:19;97353.56;;;32.91;39.17
41044;BME280;51680;49.806;18.774;2022-08-05T07:40:21;97350.25;;;33.00;38.27
41044;BME280;51680;49.806;18.774;2022-08-05T07:43:23;97352.75;;;33.41;38.76
41044;BME280;51680;49.806;18.774;2022-08-05T07:46:26;97339.75;;;33.04;37.85
41044;BME280;51680;49.806;18.774;2022-08-05T07:49:28;97342.38;;;33.38;38.31
41044;BME280;51680;49.806;18.774;2022-08-05T07:52:31;97340.16;;;33.24;37.07
41044;BME280;51680;49.806;18.774;2022-08-05T07:55:33;97346.16;;;33.37;37.93
41044;BME280;51680;49.806;18.774;2022-08-05T07:58:35;97330.81;;;33.87;37.42
41044;BME280;51680;49.806;18.774;2022-08-05T08:01:36;97332.44;;;33.88;36.68
41044;BME280;51680;49.806;18.774;2022-08-05T08:04:38;97335.56;;;34.46;36.84
41044;BME280;51680;49.806;18.774;2022-08-05T08:07:41;97340.28;;;34.72;36.54
41044;BME280;51680;49.806;18.774;2022-08-05T08:10:43;97342.19;;;34.55;36.06
41044;BME280;51680;49.806;18.774;2022-08-05T08:13:45;97342.06;;;34.12;34.95
41044;BME280;51680;49.806;18.774;2022-08-05T08:16:46;97345.44;;;34.19;36.84
41044;BME280;51680;49.806;18.774;2022-08-05T08:19:48;97342.53;;;34.59;36.64
41044;BME280;51680;49.806;18.774;2022-08-05T08:22:52;97334.44;;;35.02;34.93
41044;BME280;51680;49.806;18.774;2022-08-05T08:25:54;97337.84;;;35.35;34.59
41044;BME280;51680;49.806;18.774;2022-08-05T08:28:57;97337.47;;;35.27;33.09
41044;BME280;51680;49.806;18.774;2022-08-05T08:31:59;97330.47;;;35.57;34.26
41044;BME280;51680;49.806;18.774;2022-08-05T08:35:00;97341.81;;;36.07;33.97
41044;BME280;51680;49.806;18.774;2022-08-05T08:38:04;97337.22;;;36.44;33.70
41044;BME280;51680;49.806;18.774;2022-08-05T08:41:07;97343.75;;;36.43;33.20
41044;BME280;51680;49.806;18.774;2022-08-05T08:44:11;97342.03;;;36.32;32.46
41044;BME280;51680;49.806;18.774;2022-08-05T08:47:14;97337.25;;;36.49;33.15
41044;BME280;51680;49.806;18.774;2022-08-05T08:50:19;97341.41;;;36.62;33.12
41044;BME280;51680;49.806;18.774;2022-08-05T08:53:23;97343.81;;;36.53;33.34
41044;BME280;51680;49.806;18.774;2022-08-05T08:56:28;97341.22;;;36.32;33.98
41044;BME280;51680;49.806;18.774;2022-08-05T08:59:30;97338.03;;;36.13;32.94
41044;BME280;51680;49.806;18.774;2022-08-05T09:02:32;97333.66;;;36.44;33.22
41044;BME280;51680;49.806;18.774;2022-08-05T09:05:34;97335.91;;;36.52;33.77
41044;BME280;51680;49.806;18.774;2022-08-05T09:08:37;97333.50;;;36.60;30.45
41044;BME280;51680;49.806;18.774;2022-08-05T09:11:38;97327.03;;;36.30;31.05
41044;BME280;51680;49.806;18.774;2022-08-05T09:15:00;97333.25;;;36.20;31.63
41044;BME280;51680;49.806;18.774;2022-08-05T09:18:04;97325.53;;;36.49;30.51
41044;BME280;51680;49.806;18.774;2022-08-05T09:21:06;97320.31;;;36.79;29.61
41044;BME280;51680;49.806;18.774;2022-08-05T09:24:09;97318.00;;;37.17;30.86
41044;BME280;51680;49.806;18.774;2022-08-05T09:27:29;97309.38;;;37.50;29.12
41044;BME280;51680;49.806;18.774;2022-08-05T09:30:32;97311.63;;;37.78;29.52
41044;BME280;51680;49.806;18.774;2022-08-05T09:33:46;97305.09;;;38.09;29.44
41044;BME280;51680;49.806;18.774;2022-08-05T09:36:49;97303.19;;;38.20;29.72
41044;BME280;51680;49.806;18.774;2022-08-05T09:39:53;97308.31;;;38.42;29.49
41044;BME280;51680;49.806;18.774;2022-08-05T09:42:55;97307.47;;;38.66;29.55
41044;BME280;51680;49.806;18.774;2022-08-05T09:45:57;97312.31;;;38.89;28.82
41044;BME280;51680;49.806;18.774;2022-08-05T09:49:00;97314.75;;;38.96;28.93
41044;BME280;51680;49.806;18.774;2022-08-05T09:52:16;97313.44;;;38.88;27.85
41044;BME280;51680;49.806;18.774;2022-08-05T09:55:19;97306.19;;;38.13;27.43
41044;BME280;51680;49.806;18.774;2022-08-05T09:58:21;97310.25;;;36.89;28.65
41044;BME280;51680;49.806;18.774;2022-08-05T10:01:23;97311.09;;;36.90;29.41
41044;BME280;51680;49.806;18.774;2022-08-05T10:04:34;97315.38;;;36.76;26.85
41044;BME280;51680;49.806;18.774;2022-08-05T10:07:45;97305.31;;;36.76;30.84
41044;BME280;51680;49.806;18.774;2022-08-05T10:10:48;97313.09;;;37.14;31.34
41044;BME280;51680;49.806;18.774;2022-08-05T10:13:50;97304.19;;;37.54;29.84
41044;BME280;51680;49.806;18.774;2022-08-05T10:17:12;97299.63;;;37.74;29.91
41044;BME280;51680;49.806;18.774;2022-08-05T10:20:14;97299.09;;;37.82;27.70
41044;BME280;51680;49.806;18.774;2022-08-05T10:23:18;97294.69;;;37.76;28.57
41044;BME280;51680;49.806;18.774;2022-08-05T10:26:21;97298.00;;;37.73;29.53
41044;BME280;51680;49.806;18.774;2022-08-05T10:29:23;97290.34;;;37.80;29.09
41044;BME280;51680;49.806;18.774;2022-08-05T10:32:26;97283.78;;;37.76;27.52
41044;BME280;51680;49.806;18.774;2022-08-05T10:35:28;97287.34;;;37.62;28.76
41044;BME280;51680;49.806;18.774;2022-08-05T10:38:31;97283.78;;;37.81;29.16
41044;BME280;51680;49.806;18.774;2022-08-05T10:41:40;97286.25;;;37.88;28.75
41044;BME280;51680;49.806;18.774;2022-08-05T10:44:44;97284.88;;;37.90;29.20
41044;BME280;51680;49.806;18.774;2022-08-05T10:47:46;97282.44;;;37.94;29.57
41044;BME280;51680;49.806;18.774;2022-08-05T10:50:57;97274.00;;;38.00;27.74
41044;BME280;51680;49.806;18.774;2022-08-05T10:53:59;97276.19;;;38.03;28.45
41044;BME280;51680;49.806;18.774;2022-08-05T10:57:03;97282.16;;;37.80;28.87
41044;BME280;51680;49.806;18.774;2022-08-05T11:00:13;97278.28;;;37.36;27.32
41044;BME280;51680;49.806;18.774;2022-08-05T11:03:16;97273.00;;;37.10;30.39
41044;BME280;51680;49.806;18.774;2022-08-05T11:06:17;97267.22;;;36.86;30.06
41044;BME280;51680;49.806;18.774;2022-08-05T11:09:21;97272.34;;;36.73;30.93
41044;BME280;51680;49.806;18.774;2022-08-05T11:12:42;97268.38;;;36.49;31.73
41044;BME280;51680;49.806;18.774;2022-08-05T11:15:45;97267.81;;;36.42;31.70
41044;BME280;51680;49.806;18.774;2022-08-05T11:18:47;97270.31;;;36.48;32.06
41044;BME280;51680;49.806;18.774;2022-08-05T11:21:49;97273.03;;;36.53;32.42
41044;BME280;51680;49.806;18.774;2022-08-05T11:28:41;97268.25;;;36.75;31.39
41044;BME280;51680;49.806;18.774;2022-08-05T11:31:44;97264.75;;;36.80;31.22
41044;BME280;51680;49.806;18.774;2022-08-05T11:34:45;97270.47;;;36.83;31.96
41044;BME280;51680;49.806;18.774;2022-08-05T11:38:02;97259.06;;;36.86;30.71
41044;BME280;51680;49.806;18.774;2022-08-05T11:41:04;97258.50;;;36.84;30.97
41044;BME280;51680;49.806;18.774;2022-08-05T11:44:09;97269.22;;;36.49;31.44
41044;BME280;51680;49.806;18.774;2022-08-05T11:47:11;97263.19;;;36.47;32.01
41044;BME280;51680;49.806;18.774;2022-08-05T11:50:13;97265.63;;;36.44;32.44
41044;BME280;51680;49.806;18.774;2022-08-05T11:53:15;97264.84;;;36.48;32.91
41044;BME280;51680;49.806;18.774;2022-08-05T11:56:18;97275.78;;;36.53;33.83
41044;BME280;51680;49.806;18.774;2022-08-05T11:59:23;97271.44;;;36.57;32.80
41044;BME280;51680;49.806;18.774;2022-08-05T12:02:27;97271.97;;;36.59;32.87
41044;BME280;51680;49.806;18.774;2022-08-05T12:05:31;97267.59;;;36.53;33.22
41044;BME280;51680;49.806;18.774;2022-08-05T12:08:32;97260.72;;;36.36;31.58
41044;BME280;51680;49.806;18.774;2022-08-05T12:11:42;97253.72;;;36.13;32.12
41044;BME280;51680;49.806;18.774;2022-08-05T12:14:46;97260.28;;;36.17;33.31
41044;BME280;51680;49.806;18.774;2022-08-05T12:17:48;97253.53;;;36.20;32.66
41044;BME280;51680;49.806;18.774;2022-08-05T12:20:50;97248.72;;;36.32;33.36
41044;BME280;51680;49.806;18.774;2022-08-05T12:23:56;97252.78;;;36.29;33.36
41044;BME280;51680;49.806;18.774;2022-08-05T12:27:21;97249.50;;;36.32;33.80
41044;BME280;51680;49.806;18.774;2022-08-05T12:30:24;97251.22;;;36.38;33.79
41044;BME280;51680;49.806;18.774;2022-08-05T12:33:26;97245.19;;;36.36;33.15
41044;BME280;51680;49.806;18.774;2022-08-05T12:36:29;97245.75;;;36.33;33.36
41044;BME280;51680;49.806;18.774;2022-08-05T12:39:31;97244.03;;;36.22;32.45
41044;BME280;51680;49.806;18.774;2022-08-05T12:42:34;97245.88;;;36.17;33.01
41044;BME280;51680;49.806;18.774;2022-08-05T12:45:49;97245.06;;;36.16;32.84
41044;BME280;51680;49.806;18.774;2022-08-05T12:48:58;97240.22;;;36.23;32.87
41044;BME280;51680;49.806;18.774;2022-08-05T12:52:00;97243.22;;;36.22;33.94
41044;BME280;51680;49.806;18.774;2022-08-05T12:55:15;97233.44;;;36.26;32.44
41044;BME280;51680;49.806;18.774;2022-08-05T12:58:22;97236.50;;;36.34;32.70
41044;BME280;51680;49.806;18.774;2022-08-05T13:01:25;97227.78;;;36.42;32.28
41044;BME280;51680;49.806;18.774;2022-08-05T13:04:28;97220.50;;;36.48;32.08
41044;BME280;51680;49.806;18.774;2022-08-05T13:07:30;97220.75;;;36.46;32.10
41044;BME280;51680;49.806;18.774;2022-08-05T13:10:41;97220.13;;;36.24;31.44
41044;BME280;51680;49.806;18.774;2022-08-05T13:13:43;97220.78;;;36.05;33.32
41044;BME280;51680;49.806;18.774;2022-08-05T13:16:51;97222.13;;;36.02;32.43
41044;BME280;51680;49.806;18.774;2022-08-05T13:19:58;97211.47;;;35.96;32.68
41044;BME280;51680;49.806;18.774;2022-08-05T13:23:00;97220.19;;;35.98;33.09
41044;BME280;51680;49.806;18.774;2022-08-05T13:26:02;97225.38;;;36.04;33.22
41044;BME280;51680;49.806;18.774;2022-08-05T13:29:05;97223.75;;;36.03;33.82
41044;BME280;51680;49.806;18.774;2022-08-05T13:32:08;97222.94;;;36.03;34.01
41044;BME280;51680;49.806;18.774;2022-08-05T13:35:10;97227.03;;;36.05;34.48
41044;BME280;51680;49.806;18.774;2022-08-05T13:38:13;97227.03;;;36.05;33.97
41044;BME280;51680;49.806;18.774;2022-08-05T13:41:15;97220.53;;;36.11;34.39
41044;BME280;51680;49.806;18.774;2022-08-05T13:44:17;97220.53;;;36.11;33.68
41044;BME280;51680;49.806;18.774;2022-08-05T13:47:20;97224.38;;;36.15;33.36
41044;BME280;51680;49.806;18.774;2022-08-05T13:50:22;97215.13;;;36.16;32.94
41044;BME280;51680;49.806;18.774;2022-08-05T13:53:24;97218.16;;;36.20;33.14
41044;BME280;51680;49.806;18.774;2022-08-05T13:56:26;97213.31;;;36.22;33.23
41044;BME280;51680;49.806;18.774;2022-08-05T13:59:28;97216.81;;;36.22;33.23
41044;BME280;51680;49.806;18.774;2022-08-05T14:02:31;97211.94;;;36.19;33.31
41044;BME280;51680;49.806;18.774;2022-08-05T14:05:32;97208.34;;;36.19;33.43
41044;BME280;51680;49.806;18.774;2022-08-05T14:08:35;97205.28;;;36.05;32.70
41044;BME280;51680;49.806;18.774;2022-08-05T14:11:37;97205.50;;;35.99;32.81
41044;BME280;51680;49.806;18.774;2022-08-05T14:14:40;97207.66;;;35.97;33.86
41044;BME280;51680;49.806;18.774;2022-08-05T14:17:43;97201.94;;;35.93;34.37
41044;BME280;51680;49.806;18.774;2022-08-05T14:20:46;97198.13;;;35.94;33.73
41044;BME280;51680;49.806;18.774;2022-08-05T14:23:47;97202.53;;;36.00;34.00
41044;BME280;51680;49.806;18.774;2022-08-05T14:26:49;97186.50;;;36.04;33.21
41044;BME280;51680;49.806;18.774;2022-08-05T14:29:51;97191.72;;;36.10;33.32
41044;BME280;51680;49.806;18.774;2022-08-05T14:32:54;97187.91;;;36.11;33.45
41044;BME280;51680;49.806;18.774;2022-08-05T14:35:56;97185.19;;;36.11;34.36
41044;BME280;51680;49.806;18.774;2022-08-05T14:38:58;97181.94;;;36.14;33.90
41044;BME280;51680;49.806;18.774;2022-08-05T14:41:59;97176.22;;;36.16;33.67
41044;BME280;51680;49.806;18.774;2022-08-05T14:45:01;97176.50;;;36.14;34.34
41044;BME280;51680;49.806;18.774;2022-08-05T14:48:04;97181.13;;;36.14;33.73
41044;BME280;51680;49.806;18.774;2022-08-05T14:51:06;97172.94;;;36.09;34.50
41044;BME280;51680;49.806;18.774;2022-08-05T14:54:09;97180.53;;;36.07;32.99
41044;BME280;51680;49.806;18.774;2022-08-05T14:57:11;97179.72;;;36.06;33.03
41044;BME280;51680;49.806;18.774;2022-08-05T15:00:13;97171.00;;;36.04;32.59
41044;BME280;51680;49.806;18.774;2022-08-05T15:03:16;97176.97;;;36.01;32.54
41044;BME280;51680;49.806;18.774;2022-08-05T15:06:18;97174.19;;;35.91;32.87
41044;BME280;51680;49.806;18.774;2022-08-05T15:09:21;97169.28;;;35.88;33.64
41044;BME280;51680;49.806;18.774;2022-08-05T15:12:22;97169.53;;;35.87;33.81
41044;BME280;51680;49.806;18.774;2022-08-05T15:15:24;97169.00;;;35.85;32.62
41044;BME280;51680;49.806;18.774;2022-08-05T15:18:27;97171.47;;;35.86;32.19
41044;BME280;51680;49.806;18.774;2022-08-05T15:21:29;97172.53;;;35.85;32.42
41044;BME280;51680;49.806;18.774;2022-08-05T15:24:31;97171.97;;;35.83;32.88
41044;BME280;51680;49.806;18.774;2022-08-05T15:27:32;97169.75;;;35.80;33.30
41044;BME280;51680;49.806;18.774;2022-08-05T15:30:35;97164.63;;;35.79;32.70
41044;BME280;51680;49.806;18.774;2022-08-05T15:33:38;97157.25;;;35.79;32.67
41044;BME280;51680;49.806;18.774;2022-08-05T15:36:40;97164.88;;;35.77;33.73
41044;BME280;51680;49.806;18.774;2022-08-05T15:39:42;97159.44;;;35.77;33.74
41044;BME280;51680;49.806;18.774;2022-08-05T15:42:44;97164.28;;;35.75;33.92
41044;BME280;51680;49.806;18.774;2022-08-05T15:45:45;97164.59;;;35.74;32.92
41044;BME280;51680;49.806;18.774;2022-08-05T15:48:49;97160.47;;;35.71;33.05
41044;BME280;51680;49.806;18.774;2022-08-05T15:51:50;97156.63;;;35.67;33.09
41044;BME280;51680;49.806;18.774;2022-08-05T15:54:52;97159.34;;;35.67;32.86
41044;BME280;51680;49.806;18.774;2022-08-05T15:57:54;97160.09;;;35.63;32.99
41044;BME280;51680;49.806;18.774;2022-08-05T16:00:56;97153.00;;;35.57;32.40
41044;BME280;51680;49.806;18.774;2022-08-05T16:03:59;97152.72;;;35.53;32.48